Old Bethpage, New York
Current Conditions -  °F | °C
As of 6:53 AM on Tuesday 27 Jan 2015 (Local Time) from KFRG Reporting Station
Haze Haze  
Wind Chill:   Ceiling: 1400
Heat Index: 22°   Visibility: 0.75mi
Dew Point: 17°   Wind: 17mph
Humidity: 82%   Direction: 350°N
Pressure: 29.61"   Gusts: 23mph
Location:  40.76°N, 73.45°W
Report Text: KFRG 271153Z AUTO 35015G20KT 3/4SM HZ OVC014 M06/M08 A2961 RMK AO2 SFC VIS 1 1/2 SLP029 70011 T10561083 11039 21056 53004 PWINO FZRANO $
Loading
Personal Weather Stations






























Interactive Weather Map New forecast layout! Learn more

10-Day Weather Forecast

Advertisements
Track Severe Weather on mobile